createdAt,value
2018-04-02T00:02:16.521Z,4.07
2018-04-02T00:04:44.103Z,3.57
2018-04-02T00:07:11.688Z,3.87
2018-04-02T00:09:39.273Z,3.70
2018-04-02T00:12:06.897Z,4.43
2018-04-02T00:14:34.491Z,4.83
2018-04-02T00:17:02.092Z,4.67
2018-04-02T00:19:29.675Z,5.17
2018-04-02T00:21:57.282Z,6.30
2018-04-02T00:24:24.925Z,4.93
2018-04-02T00:26:52.895Z,4.67
2018-04-02T00:29:20.474Z,5.17
2018-04-02T00:31:48.259Z,5.50
2018-04-02T00:34:15.872Z,5.20
2018-04-02T00:36:43.455Z,5.57
2018-04-02T00:39:11.044Z,5.47
2018-04-02T00:41:38.702Z,5.60
2018-04-02T00:44:06.315Z,6.73
2018-04-02T00:46:33.895Z,6.37
2018-04-02T00:49:01.478Z,5.87
2018-04-02T00:51:29.063Z,4.50
2018-04-02T00:53:56.639Z,4.57
2018-04-02T00:56:24.271Z,4.30
2018-04-02T00:58:51.881Z,4.43
2018-04-02T01:01:19.506Z,4.37
2018-04-02T01:03:47.151Z,4.73
2018-04-02T01:06:14.730Z,4.73
2018-04-02T01:08:42.320Z,4.10
2018-04-02T01:11:09.951Z,4.93
2018-04-02T01:13:37.531Z,3.80
2018-04-02T01:16:05.131Z,3.87
2018-04-02T01:18:32.764Z,3.50
2018-04-02T01:21:00.342Z,3.00
2018-04-02T01:23:27.929Z,3.17
2018-04-02T01:25:55.598Z,3.40
2018-04-02T01:28:23.195Z,3.60
2018-04-02T01:30:50.791Z,3.37
2018-04-02T01:33:18.454Z,3.17
2018-04-02T01:35:46.053Z,3.10
2018-04-02T01:38:13.643Z,3.63
2018-04-02T01:40:41.227Z,3.40
2018-04-02T01:43:08.934Z,3.57
2018-04-02T01:45:36.529Z,3.70
2018-04-02T01:48:04.175Z,3.73
2018-04-02T01:50:31.774Z,3.73
2018-04-02T01:52:59.375Z,3.80
2018-04-02T01:55:27.018Z,3.13
2018-04-02T01:57:54.646Z,4.23
2018-04-02T02:00:22.251Z,3.60
2018-04-02T02:02:49.906Z,3.97
2018-04-02T02:05:17.486Z,3.80
2018-04-02T02:07:45.059Z,3.80
2018-04-02T02:10:12.674Z,4.10
2018-04-02T02:12:40.282Z,4.07
2018-04-02T02:15:07.862Z,4.20
2018-04-02T02:17:35.446Z,4.47
2018-04-02T02:20:03.033Z,4.20
2018-04-02T02:22:30.663Z,4.00
2018-04-02T02:24:58.256Z,3.87
2018-04-02T02:27:25.883Z,4.13
2018-04-02T02:29:53.487Z,3.77
2018-04-02T02:32:21.079Z,3.43
2018-04-02T02:34:48.704Z,3.50
2018-04-02T02:37:16.307Z,3.40
2018-04-02T02:39:43.894Z,3.53
2018-04-02T02:42:11.511Z,3.50
2018-04-02T02:44:39.134Z,3.60
2018-04-02T02:47:06.778Z,3.47
2018-04-02T02:49:34.375Z,3.97
2018-04-02T02:52:02.033Z,3.50
2018-04-02T02:54:29.618Z,3.63
2018-04-02T02:56:58.685Z,3.80
2018-04-02T02:59:26.558Z,3.40
2018-04-02T03:01:54.149Z,3.90
2018-04-02T03:04:21.759Z,3.90
2018-04-02T03:06:49.341Z,4.10
2018-04-02T03:09:16.975Z,4.30
2018-04-02T03:11:44.568Z,4.13
2018-04-02T03:14:12.191Z,4.20
2018-04-02T03:16:39.818Z,4.07
2018-04-02T03:19:07.399Z,3.93
2018-04-02T03:21:34.974Z,4.00
2018-04-02T03:24:02.558Z,3.80
2018-04-02T03:26:30.230Z,3.57
2018-04-02T03:28:57.906Z,3.57
2018-04-02T03:31:25.500Z,4.30
2018-04-02T03:33:53.086Z,3.93
2018-04-02T03:36:20.690Z,3.83
2018-04-02T03:38:48.276Z,3.83
2018-04-02T03:41:15.887Z,4.10
2018-04-02T03:43:43.507Z,4.13
2018-04-02T03:46:11.107Z,3.63
2018-04-02T03:48:38.717Z,4.87
2018-04-02T03:51:06.316Z,4.57
2018-04-02T03:53:33.979Z,3.97
2018-04-02T03:56:01.555Z,3.80
2018-04-02T03:58:29.143Z,3.90
2018-04-02T04:00:56.802Z,4.20
2018-04-02T04:03:24.414Z,4.70
2018-04-02T04:05:51.998Z,4.90
2018-04-02T04:08:19.634Z,4.40
2018-04-02T04:10:47.239Z,5.10
2018-04-02T04:13:14.829Z,4.20
2018-04-02T04:15:42.490Z,4.63
2018-04-02T04:18:10.107Z,4.60
2018-04-02T04:20:37.727Z,4.73
2018-04-02T04:23:05.857Z,4.83
2018-04-02T04:25:34.313Z,4.60
2018-04-02T04:28:02.567Z,4.10
2018-04-02T04:30:30.174Z,6.53
2018-04-02T04:33:01.123Z,5.33
2018-04-02T04:35:28.771Z,8.63
2018-04-02T04:37:56.605Z,6.70
2018-04-02T04:40:24.579Z,5.80
2018-04-02T04:42:52.468Z,6.90
2018-04-02T04:45:20.050Z,6.40
2018-04-02T04:47:47.667Z,5.37
2018-04-02T04:50:15.612Z,5.30
2018-04-02T04:52:43.240Z,6.10
2018-04-02T04:55:11.313Z,7.77
2018-04-02T04:57:39.460Z,7.67
2018-04-02T05:00:07.100Z,6.70
2018-04-02T05:02:34.727Z,7.50
2018-04-02T05:05:02.359Z,7.40
2018-04-02T05:07:29.950Z,6.97
2018-04-02T05:09:57.722Z,7.47
2018-04-02T05:12:25.374Z,7.57
2018-04-02T05:14:53.021Z,7.43
2018-04-02T05:17:20.618Z,7.80
2018-04-02T05:19:48.229Z,8.30
2018-04-02T05:22:15.882Z,6.50
2018-04-02T05:24:43.551Z,7.37
2018-04-02T05:27:11.159Z,6.20
2018-04-02T05:29:39.270Z,7.60
2018-04-02T05:32:06.910Z,6.20
2018-04-02T05:34:34.531Z,7.23
2018-04-02T05:37:02.192Z,5.37
2018-04-02T05:39:29.777Z,5.20
2018-04-02T05:41:57.484Z,6.70
2018-04-02T05:44:25.111Z,7.00
2018-04-02T05:46:52.754Z,5.90
2018-04-02T05:49:20.350Z,5.80
2018-04-02T05:51:47.985Z,6.10
2018-04-02T05:54:15.593Z,11.53
2018-04-02T05:56:43.221Z,8.07
2018-04-02T05:59:10.824Z,8.90
2018-04-02T06:01:38.430Z,8.13
2018-04-02T06:04:06.056Z,8.40
2018-04-02T06:06:33.663Z,7.43
2018-04-02T06:09:01.247Z,9.23
2018-04-02T06:11:28.908Z,7.87
2018-04-02T06:13:56.515Z,7.13
2018-04-02T06:16:24.099Z,6.53
2018-04-02T06:18:51.727Z,5.07
2018-04-02T06:21:19.335Z,7.43
2018-04-02T06:23:46.960Z,4.93
2018-04-02T06:26:14.600Z,7.53
2018-04-02T06:28:42.188Z,9.63
2018-04-02T06:31:09.790Z,7.50
2018-04-02T06:33:37.462Z,6.53
2018-04-02T06:36:05.056Z,3.70
2018-04-02T06:38:32.650Z,4.00
2018-04-02T06:41:00.283Z,3.33
2018-04-02T06:43:27.907Z,3.00
2018-04-02T06:45:55.508Z,3.47
2018-04-02T06:48:23.114Z,3.50
2018-04-02T06:50:50.721Z,3.87
2018-04-02T06:53:18.370Z,4.30
2018-04-02T06:55:45.991Z,3.70
2018-04-02T06:58:13.585Z,5.67
2018-04-02T07:00:41.214Z,4.03
2018-04-02T07:03:08.824Z,4.37
2018-04-02T07:05:36.448Z,3.67
2018-04-02T07:08:04.075Z,4.03
2018-04-02T07:10:31.683Z,3.90
2018-04-02T07:12:59.268Z,5.00
2018-04-02T07:15:26.875Z,3.07
2018-04-02T07:17:54.507Z,4.93
2018-04-02T07:20:22.125Z,4.00
2018-04-02T07:22:49.748Z,2.80
2018-04-02T07:25:17.366Z,2.77
2018-04-02T07:27:45.031Z,2.17
2018-04-02T07:30:12.630Z,2.63
2018-04-02T07:32:40.261Z,1.90
2018-04-02T07:35:07.844Z,2.23
2018-04-02T07:37:35.442Z,2.67
2018-04-02T07:40:03.073Z,3.17
2018-04-02T07:42:30.687Z,2.43
2018-04-02T07:44:58.267Z,2.03
2018-04-02T07:47:25.908Z,2.80
2018-04-02T07:49:53.638Z,3.23
2018-04-02T07:52:21.267Z,2.57
2018-04-02T07:54:48.847Z,2.40
2018-04-02T07:57:16.500Z,2.30
2018-04-02T07:59:44.121Z,2.60
2018-04-02T08:02:11.764Z,2.00
2018-04-02T08:04:39.354Z,2.33
2018-04-02T08:07:06.942Z,2.80
2018-04-02T08:09:34.574Z,1.93
2018-04-02T08:12:02.182Z,1.70
2018-04-02T08:14:29.824Z,1.73
2018-04-02T08:16:57.431Z,1.50
2018-04-02T08:19:25.028Z,1.67
2018-04-02T08:21:52.694Z,2.13
2018-04-02T08:24:20.284Z,2.10
2018-04-02T08:26:47.895Z,1.17
2018-04-02T08:29:15.522Z,1.63
2018-04-02T08:31:43.118Z,1.60
2018-04-02T08:34:10.741Z,1.83
2018-04-02T08:36:38.403Z,2.10
2018-04-02T08:39:06.068Z,2.87
2018-04-02T08:41:33.706Z,1.90
2018-04-02T08:44:01.367Z,2.07
2018-04-02T08:46:29.021Z,2.03
2018-04-02T08:48:56.648Z,2.30
2018-04-02T08:51:24.294Z,2.40
2018-04-02T08:53:51.879Z,2.40
2018-04-02T08:56:19.694Z,2.20
2018-04-02T08:58:47.311Z,1.77
2018-04-02T09:01:14.940Z,1.30
2018-04-02T09:03:42.522Z,1.60
2018-04-02T09:06:10.104Z,1.57
2018-04-02T09:08:37.028Z,1.77
2018-04-02T09:11:04.615Z,1.30
2018-04-02T09:13:32.218Z,1.47
2018-04-02T09:15:59.830Z,1.77
2018-04-02T09:18:27.503Z,1.60
2018-04-02T09:20:55.117Z,1.60
2018-04-02T09:23:22.705Z,2.00
2018-04-02T09:25:50.326Z,1.83
2018-04-02T09:28:17.974Z,1.60
2018-04-02T09:30:45.571Z,2.10
2018-04-02T09:33:13.164Z,1.20
2018-04-02T09:35:40.805Z,1.73
2018-04-02T09:38:08.471Z,1.80
2018-04-02T09:40:36.058Z,1.40
2018-04-02T09:43:03.660Z,1.60
2018-04-02T09:45:31.333Z,1.17
2018-04-02T09:47:58.907Z,1.27
2018-04-02T09:50:26.494Z,1.33
2018-04-02T09:52:54.480Z,1.87
2018-04-02T09:55:22.190Z,1.40
2018-04-02T09:57:49.807Z,1.57
2018-04-02T10:00:17.452Z,0.90
2018-04-02T10:02:45.799Z,1.40
2018-04-02T10:05:13.444Z,1.57
2018-04-02T10:07:41.074Z,1.20
2018-04-02T10:10:08.688Z,1.37
2018-04-02T10:12:36.311Z,1.30
2018-04-02T10:15:03.907Z,2.93
2018-04-02T10:17:31.498Z,2.27
2018-04-02T10:19:59.184Z,1.07
2018-04-02T10:22:26.769Z,2.10
2018-04-02T10:24:54.367Z,1.70
2018-04-02T10:27:21.968Z,2.03
2018-04-02T10:29:49.566Z,1.20
2018-04-02T10:32:17.272Z,1.87
2018-04-02T10:34:44.856Z,2.10
2018-04-02T10:37:12.452Z,1.10
2018-04-02T10:39:40.091Z,1.30
2018-04-02T10:42:07.699Z,1.20
2018-04-02T10:44:35.386Z,2.40
2018-04-02T10:47:03.083Z,1.40
2018-04-02T10:49:30.697Z,1.30
2018-04-02T10:51:58.302Z,1.20
2018-04-02T10:54:25.952Z,1.43
2018-04-02T10:56:53.543Z,1.20
2018-04-02T10:59:21.180Z,1.10
2018-04-02T11:01:48.801Z,1.20
2018-04-02T11:04:16.414Z,1.20
2018-04-02T11:06:43.998Z,1.17
2018-04-02T11:09:11.592Z,8.13
2018-04-02T11:11:39.275Z,1.40
2018-04-02T11:14:06.882Z,1.17
2018-04-02T11:16:34.503Z,1.10
2018-04-02T11:19:02.083Z,1.60
2018-04-02T11:21:29.699Z,1.60
2018-04-02T11:23:57.318Z,1.27
2018-04-02T11:26:24.987Z,1.70
2018-04-02T11:28:52.582Z,1.43
2018-04-02T11:31:20.239Z,1.50
2018-04-02T11:33:47.839Z,1.50
2018-04-02T11:36:15.427Z,1.60
2018-04-02T11:38:43.013Z,5.43
2018-04-02T11:41:10.598Z,1.60
2018-04-02T11:43:38.233Z,1.50
2018-04-02T11:46:05.818Z,1.50
2018-04-02T11:48:33.398Z,1.60
2018-04-02T11:51:01.019Z,1.60
2018-04-02T11:53:28.626Z,1.70
2018-04-02T11:55:56.263Z,5.53
2018-04-02T11:58:23.845Z,1.53
2018-04-02T12:00:51.515Z,1.73
2018-04-02T12:03:19.139Z,1.63
2018-04-02T12:05:46.747Z,1.30
2018-04-02T12:08:14.330Z,1.60
2018-04-02T12:10:41.959Z,2.23
2018-04-02T12:13:09.564Z,1.30
2018-04-02T12:15:37.175Z,2.00
2018-04-02T12:18:04.793Z,1.50
2018-04-02T12:20:32.380Z,1.47
2018-04-02T12:23:00.039Z,1.57
2018-04-02T12:25:27.635Z,1.60
2018-04-02T12:27:55.243Z,2.20
2018-04-02T12:30:22.874Z,1.90
2018-04-02T12:32:50.473Z,1.80
2018-04-02T12:35:18.079Z,1.60
2018-04-02T12:37:45.763Z,1.50
2018-04-02T12:40:13.358Z,1.90
2018-04-02T12:42:40.962Z,1.30
2018-04-02T12:45:08.571Z,1.30
2018-04-02T12:47:36.207Z,1.50
2018-04-02T12:50:03.852Z,1.40
2018-04-02T12:52:31.447Z,2.20
2018-04-02T12:54:59.037Z,1.40
2018-04-02T12:57:26.663Z,1.30
2018-04-02T12:59:54.267Z,1.70
2018-04-02T13:02:21.891Z,1.43
2018-04-02T13:04:49.535Z,1.20
2018-04-02T13:07:17.133Z,1.37
2018-04-02T13:09:44.763Z,1.30
2018-04-02T13:12:12.340Z,1.60
2018-04-02T13:14:39.923Z,1.60
2018-04-02T13:17:07.555Z,1.20
2018-04-02T13:19:35.265Z,1.70
2018-04-02T13:22:02.884Z,1.23
2018-04-02T13:24:30.484Z,1.20
2018-04-02T13:26:58.084Z,1.60
2018-04-02T13:29:25.750Z,1.40
2018-04-02T13:34:45.675Z,1.20
2018-04-02T13:37:13.278Z,1.80
2018-04-02T13:39:40.870Z,2.17
2018-04-02T13:42:08.547Z,1.23
2018-04-02T13:44:36.153Z,1.30
2018-04-02T13:47:03.743Z,1.40
2018-04-02T13:49:31.373Z,1.20
2018-04-02T13:51:58.973Z,1.53
2018-04-02T13:54:26.593Z,1.30
2018-04-02T13:56:54.270Z,1.20
2018-04-02T13:59:21.853Z,1.17
2018-04-02T14:01:49.446Z,1.20
2018-04-02T14:04:17.067Z,1.10
2018-04-02T14:06:44.682Z,1.30
2018-04-02T14:09:12.308Z,1.50
2018-04-02T14:11:40.047Z,1.10
2018-04-02T14:14:07.650Z,1.27
2018-04-02T14:16:35.247Z,1.30
2018-04-02T14:19:02.923Z,1.30
2018-04-02T14:21:30.532Z,1.40
2018-04-02T14:23:58.143Z,1.40
2018-04-02T14:26:25.770Z,1.20
2018-04-02T14:28:53.394Z,1.10
2018-04-02T14:31:20.987Z,1.60
2018-04-02T14:33:48.606Z,1.50
2018-04-02T14:36:16.226Z,1.43
2018-04-02T14:38:43.826Z,1.10
2018-04-02T14:41:11.483Z,1.40
2018-04-02T14:43:39.107Z,1.90
2018-04-02T14:46:06.715Z,1.83
2018-04-02T14:48:34.339Z,1.30
2018-04-02T14:51:01.928Z,1.20
2018-04-02T14:53:32.015Z,1.40
2018-04-02T14:55:59.644Z,1.60
2018-04-02T14:58:27.223Z,1.77
2018-04-02T15:00:54.802Z,1.70
2018-04-02T15:03:22.392Z,1.90
2018-04-02T15:05:50.239Z,1.30
2018-04-02T15:08:17.880Z,1.60
2018-04-02T15:10:45.473Z,1.50
2018-04-02T15:13:13.088Z,1.40
2018-04-02T15:15:40.707Z,1.40
2018-04-02T15:18:08.329Z,1.10
2018-04-02T15:20:35.926Z,1.07
2018-04-02T15:23:03.571Z,1.07
2018-04-02T15:25:31.181Z,1.30
2018-04-02T15:27:58.782Z,1.50
2018-04-02T15:30:26.477Z,1.40
2018-04-02T15:32:54.082Z,1.60
2018-04-02T15:35:21.687Z,1.50
2018-04-02T15:37:49.350Z,1.70
2018-04-02T15:40:16.944Z,1.40
2018-04-02T15:42:44.595Z,1.40
2018-04-02T15:45:12.195Z,1.33
2018-04-02T15:47:39.786Z,1.43
2018-04-02T15:50:07.455Z,1.57
2018-04-02T15:52:35.047Z,1.43
2018-04-02T15:55:02.654Z,1.60
2018-04-02T15:57:30.275Z,1.53
2018-04-02T15:59:57.882Z,1.77
2018-04-02T16:02:25.463Z,2.37
2018-04-02T16:04:53.115Z,2.07
2018-04-02T16:07:20.705Z,2.50
2018-04-02T16:09:48.291Z,3.00
2018-04-02T16:12:15.891Z,2.47
2018-04-02T16:14:43.492Z,3.00
2018-04-02T16:17:11.223Z,2.80
2018-04-02T16:19:38.772Z,3.83
2018-04-02T16:22:06.353Z,4.53
2018-04-02T16:24:33.999Z,3.93
2018-04-02T16:27:01.579Z,2.67
2018-04-02T16:29:29.178Z,2.57
2018-04-02T16:31:56.851Z,2.40
2018-04-02T16:34:24.454Z,3.33
2018-04-02T16:36:52.106Z,2.43
2018-04-02T16:39:19.691Z,2.43
2018-04-02T16:41:47.270Z,2.67
2018-04-02T16:44:14.943Z,2.67
2018-04-02T16:46:42.540Z,3.33
2018-04-02T16:49:10.142Z,3.10
2018-04-02T16:51:37.743Z,2.43
2018-04-02T16:54:05.315Z,2.50
2018-04-02T16:56:32.988Z,2.30
2018-04-02T16:59:00.626Z,2.60
2018-04-02T17:01:28.308Z,2.60
2018-04-02T17:03:55.938Z,2.83
2018-04-02T17:06:23.518Z,2.90
2018-04-02T17:08:51.103Z,2.73
2018-04-02T17:11:18.753Z,3.07
2018-04-02T17:13:46.352Z,3.27
2018-04-02T17:16:13.936Z,3.20
2018-04-02T17:18:42.852Z,2.80
2018-04-02T17:21:10.447Z,3.17
2018-04-02T17:23:38.044Z,2.90
2018-04-02T17:26:05.694Z,3.33
2018-04-02T17:28:33.324Z,1.90
2018-04-02T17:31:00.919Z,1.87
2018-04-02T17:33:28.558Z,1.73
2018-04-02T17:35:56.181Z,2.03
2018-04-02T17:38:23.780Z,2.10
2018-04-02T17:40:51.400Z,2.30
2018-04-02T17:43:18.982Z,1.70
2018-04-02T17:45:46.579Z,2.10
2018-04-02T17:48:14.178Z,2.00
2018-04-02T17:50:41.758Z,2.03
2018-04-02T17:53:09.387Z,1.90
2018-04-02T17:55:36.985Z,1.50
2018-04-02T17:58:04.618Z,1.83
2018-04-02T18:00:32.244Z,1.97
2018-04-02T18:02:59.840Z,1.83
2018-04-02T18:05:27.501Z,2.00
2018-04-02T18:07:55.111Z,3.10
2018-04-02T18:10:22.751Z,2.07
2018-04-02T18:12:50.431Z,2.93
2018-04-02T18:15:18.041Z,4.43
2018-04-02T18:17:45.670Z,3.80
2018-04-02T18:20:13.302Z,5.13
2018-04-02T18:22:40.925Z,6.93
2018-04-02T18:25:08.543Z,5.60
2018-04-02T18:27:36.167Z,8.43
2018-04-02T18:30:03.817Z,10.90
2018-04-02T18:32:31.416Z,5.67
2018-04-02T18:34:59.007Z,6.93
2018-04-02T18:37:26.650Z,7.73
2018-04-02T18:39:54.254Z,10.33
2018-04-02T18:42:21.838Z,8.43
2018-04-02T18:44:49.443Z,11.00
2018-04-02T18:47:17.056Z,8.00
2018-04-02T18:49:44.699Z,16.03
2018-04-02T18:52:12.283Z,6.97
2018-04-02T18:54:39.883Z,6.60
2018-04-02T18:57:07.497Z,7.37
2018-04-02T18:59:35.088Z,8.27
2018-04-02T19:02:02.807Z,17.67
2018-04-02T19:04:30.519Z,10.07
2018-04-02T19:06:58.131Z,10.63
2018-04-02T19:09:25.770Z,7.93
2018-04-02T19:11:53.382Z,7.27
2018-04-02T19:14:20.980Z,8.83
2018-04-02T19:16:48.619Z,10.10
2018-04-02T19:19:16.230Z,30.13
2018-04-02T19:21:43.866Z,7.77
2018-04-02T19:24:12.643Z,5.67
2018-04-02T19:26:40.235Z,5.97
2018-04-02T19:29:07.878Z,6.43
2018-04-02T19:31:35.475Z,6.93
2018-04-02T19:34:03.083Z,6.03
2018-04-02T19:36:30.738Z,10.90
2018-04-02T19:38:58.375Z,15.97
2018-04-02T19:41:25.998Z,8.70
2018-04-02T19:43:53.648Z,6.37
2018-04-02T19:46:21.247Z,6.57
2018-04-02T19:48:48.933Z,5.87
2018-04-02T19:51:16.622Z,16.07
2018-04-02T19:53:44.261Z,8.77
2018-04-02T19:56:11.860Z,16.43
2018-04-02T19:58:39.499Z,17.10
2018-04-02T20:01:07.096Z,16.13
2018-04-02T20:03:34.707Z,12.90
2018-04-02T20:06:02.322Z,12.70
2018-04-02T20:08:29.915Z,8.63
2018-04-02T20:10:57.585Z,10.90
2018-04-02T20:13:25.231Z,8.73
2018-04-02T20:15:52.820Z,8.97
2018-04-02T20:18:20.491Z,7.13
2018-04-02T20:20:48.084Z,5.90
2018-04-02T20:23:15.715Z,7.97
2018-04-02T20:25:43.379Z,6.97
2018-04-02T20:28:11.012Z,7.50
2018-04-02T20:30:38.600Z,5.07
2018-04-02T20:33:06.239Z,7.27
2018-04-02T20:35:33.863Z,7.50
2018-04-02T20:38:01.463Z,7.63
2018-04-02T20:40:29.057Z,6.43
2018-04-02T20:42:56.646Z,6.07
2018-04-02T20:45:24.270Z,6.23
2018-04-02T20:47:51.991Z,5.60
2018-04-02T20:50:19.789Z,5.50
2018-04-02T20:52:47.454Z,5.17
2018-04-02T20:55:15.071Z,5.30
2018-04-02T20:57:43.285Z,4.53
2018-04-02T21:00:10.360Z,5.17
2018-04-02T21:02:37.943Z,4.87
2018-04-02T21:05:05.675Z,4.83
2018-04-02T21:07:33.292Z,4.63
2018-04-02T21:10:00.891Z,4.93
2018-04-02T21:12:28.561Z,6.00
2018-04-02T21:14:56.191Z,5.50
2018-04-02T21:17:23.779Z,4.63
2018-04-02T21:19:51.401Z,4.43
2018-04-02T21:22:19.033Z,5.17
2018-04-02T21:24:46.676Z,6.33
2018-04-02T21:27:14.320Z,5.33
2018-04-02T21:29:41.958Z,7.07
2018-04-02T21:32:09.574Z,8.80
2018-04-02T21:34:37.167Z,7.97
2018-04-02T21:37:04.800Z,7.33
2018-04-02T21:39:32.400Z,7.13
2018-04-02T21:42:00.007Z,7.50
2018-04-02T21:44:27.619Z,6.63
2018-04-02T21:46:55.206Z,7.37
2018-04-02T21:49:22.854Z,7.43
2018-04-02T21:51:50.479Z,7.77
2018-04-02T21:54:18.086Z,7.83
2018-04-02T21:56:45.754Z,7.20
2018-04-02T21:59:13.343Z,7.63
2018-04-02T22:01:40.929Z,7.80
2018-04-02T22:04:08.591Z,7.33
2018-04-02T22:06:48.410Z,7.60
2018-04-02T22:09:16.045Z,9.40
2018-04-02T22:11:43.637Z,9.17
2018-04-02T22:14:11.231Z,9.00
2018-04-02T22:16:38.883Z,8.60
2018-04-02T22:19:06.531Z,8.33
2018-04-02T22:21:34.126Z,8.33
2018-04-02T22:24:01.724Z,8.40
2018-04-02T22:26:29.322Z,7.90
2018-04-02T22:28:56.964Z,8.90
2018-04-02T22:31:24.575Z,7.80
2018-04-02T22:33:52.262Z,6.20
2018-04-02T22:36:19.939Z,6.43
2018-04-02T22:38:47.570Z,6.87
2018-04-02T22:41:18.335Z,6.63
2018-04-02T22:43:45.931Z,6.37
2018-04-02T22:46:13.563Z,6.20
2018-04-02T22:48:41.263Z,6.63
2018-04-02T22:51:08.896Z,6.20
2018-04-02T22:53:36.491Z,5.30
2018-04-02T22:56:04.119Z,5.67
2018-04-02T22:58:31.731Z,5.77
2018-04-02T23:00:59.359Z,5.70
2018-04-02T23:03:27.022Z,5.47
2018-04-02T23:05:54.622Z,5.47
2018-04-02T23:08:22.202Z,5.00
2018-04-02T23:10:49.832Z,5.23
2018-04-02T23:13:17.433Z,4.83
2018-04-02T23:15:45.029Z,4.87
2018-04-02T23:18:12.662Z,4.63
2018-04-02T23:20:40.262Z,3.80
2018-04-02T23:23:07.878Z,3.93
2018-04-02T23:25:35.494Z,2.97
2018-04-02T23:28:03.084Z,3.47
2018-04-02T23:30:30.679Z,3.27
2018-04-02T23:32:58.302Z,3.17
2018-04-02T23:35:25.886Z,3.27
2018-04-02T23:37:53.529Z,3.40
2018-04-02T23:40:21.135Z,3.47
2018-04-02T23:42:48.734Z,3.60
2018-04-02T23:45:16.323Z,4.50
2018-04-02T23:47:43.939Z,4.30
2018-04-02T23:50:11.574Z,3.80
2018-04-02T23:52:39.278Z,3.70
2018-04-02T23:55:06.894Z,3.60
2018-04-02T23:57:34.527Z,3.50
